createdAt,value
2022-12-23T00:02:30.244Z,100176.44
2022-12-23T00:05:38.202Z,100182.28
2022-12-23T00:08:42.041Z,100181.16
2022-12-23T00:12:04.624Z,100186.69
2022-12-23T00:15:07.525Z,100194.16
2022-12-23T00:18:10.131Z,100176.25
2022-12-23T00:21:16.470Z,100170.44
2022-12-23T00:24:19.160Z,100191.69
2022-12-23T00:27:21.469Z,100185.94
2022-12-23T00:30:24.535Z,100174.91
2022-12-23T00:33:29.749Z,100191.44
2022-12-23T00:36:32.492Z,100192.00
2022-12-23T00:39:55.166Z,100184.25
2022-12-23T00:42:59.873Z,100178.75
2022-12-23T00:46:02.204Z,100178.50
2022-12-23T00:49:23.887Z,100167.47
2022-12-23T00:52:27.133Z,100172.16
2022-12-23T00:55:30.502Z,100171.59
2022-12-23T00:58:32.824Z,100173.81
2022-12-23T01:01:54.508Z,100169.72
2022-12-23T01:05:15.432Z,100177.69
2022-12-23T01:08:18.014Z,100163.38
2022-12-23T01:11:20.335Z,100156.16
2022-12-23T01:14:23.500Z,100166.37
2022-12-23T01:17:25.852Z,100161.69
2022-12-23T01:20:28.523Z,100160.84
2022-12-23T01:23:31.278Z,100155.66
2022-12-23T01:26:34.072Z,100150.66
2022-12-23T01:29:36.420Z,100138.28
2022-12-23T01:32:39.020Z,100141.06
2022-12-23T01:35:41.340Z,100135.81
2022-12-23T01:38:44.044Z,100149.91
2022-12-23T01:42:04.871Z,100149.06
2022-12-23T01:45:16.188Z,100135.25
2022-12-23T01:48:21.957Z,100137.50
2022-12-23T01:51:30.008Z,100134.72
2022-12-23T01:54:33.023Z,100132.25
2022-12-23T01:57:40.112Z,100126.47
2022-12-23T02:01:01.455Z,100128.66
2022-12-23T02:04:09.699Z,100117.06
2022-12-23T02:07:32.100Z,100114.00
2022-12-23T02:10:52.217Z,100118.41
2022-12-23T02:14:38.080Z,100118.72
2022-12-23T02:18:11.393Z,100100.50
2022-12-23T02:21:22.968Z,100112.09
2022-12-23T02:24:59.317Z,100117.34
2022-12-23T02:28:42.463Z,100109.31
2022-12-23T02:31:58.253Z,100096.56
2022-12-23T02:35:09.587Z,100102.34
2022-12-23T02:38:20.888Z,100120.53
2022-12-23T02:41:31.506Z,100108.09
2022-12-23T02:44:45.069Z,100104.81
2022-12-23T02:47:55.137Z,100102.31
2022-12-23T02:51:00.265Z,100110.84
2022-12-23T02:54:07.117Z,100092.09
2022-12-23T02:57:12.722Z,100101.19
2022-12-23T03:00:16.054Z,100112.50
2022-12-23T03:03:21.143Z,100105.81
2022-12-23T03:06:29.274Z,100109.62
2022-12-23T03:09:56.081Z,100108.25
2022-12-23T03:13:10.042Z,100119.00
2022-12-23T03:16:15.611Z,100123.62
2022-12-23T03:19:30.047Z,100121.66
2022-12-23T03:22:38.151Z,100120.03
2022-12-23T03:25:53.757Z,100117.56
2022-12-23T03:29:03.829Z,100116.72
2022-12-23T03:32:08.242Z,100109.56
2022-12-23T03:35:15.809Z,100099.62
2022-12-23T03:38:19.384Z,100094.94
2022-12-23T03:41:27.988Z,100106.72
2022-12-23T03:44:35.454Z,100096.19
2022-12-23T03:47:46.808Z,100090.97
2022-12-23T03:50:53.735Z,100097.91
2022-12-23T03:54:07.825Z,100098.75
2022-12-23T03:57:12.306Z,100090.16
2022-12-23T04:00:15.023Z,100100.34
2022-12-23T04:03:26.332Z,100100.59
2022-12-23T04:06:34.132Z,100085.72
2022-12-23T04:09:37.903Z,100081.25
2022-12-23T04:12:40.647Z,100096.06
2022-12-23T04:15:43.465Z,100079.00
2022-12-23T04:18:45.869Z,100087.31
2022-12-23T04:21:48.526Z,100071.91
2022-12-23T04:24:50.989Z,100079.91
2022-12-23T04:27:53.646Z,100075.22
2022-12-23T04:30:56.002Z,100068.91
2022-12-23T04:33:58.730Z,100079.09
2022-12-23T04:37:01.163Z,100080.44
2022-12-23T04:40:04.732Z,100079.06
2022-12-23T04:43:07.084Z,100075.44
2022-12-23T04:46:09.814Z,100077.81
2022-12-23T04:49:12.154Z,100095.75
2022-12-23T04:52:14.857Z,100090.25
2022-12-23T04:55:17.187Z,100094.56
2022-12-23T04:58:22.162Z,100086.44
2022-12-23T05:01:24.635Z,100092.19
2022-12-23T05:04:27.467Z,100079.44
2022-12-23T05:07:29.941Z,100078.44
2022-12-23T05:10:32.673Z,100077.34
2022-12-23T05:13:35.070Z,100074.97
2022-12-23T05:16:38.050Z,100085.56
2022-12-23T05:19:40.403Z,100093.53
2022-12-23T05:22:43.052Z,100086.06
2022-12-23T05:25:51.803Z,100098.19
2022-12-23T05:28:55.088Z,100092.38
2022-12-23T05:31:57.544Z,100071.53
2022-12-23T05:35:00.182Z,100068.34
2022-12-23T05:38:03.385Z,100077.34
2022-12-23T05:41:06.344Z,100083.66
2022-12-23T05:44:08.654Z,100082.88
2022-12-23T05:47:11.667Z,100089.75
2022-12-23T05:50:14.253Z,100088.53
2022-12-23T05:53:17.100Z,100086.38
2022-12-23T05:56:19.484Z,100102.91
2022-12-23T05:59:23.572Z,100106.09
2022-12-23T06:02:28.831Z,100113.88
2022-12-23T06:05:31.567Z,100111.59
2022-12-23T06:08:33.998Z,100117.84
2022-12-23T06:11:36.641Z,100103.91
2022-12-23T06:14:38.968Z,100105.63
2022-12-23T06:17:41.752Z,100100.50
2022-12-23T06:20:48.065Z,100105.03
2022-12-23T06:23:50.766Z,100112.94
2022-12-23T06:26:57.081Z,100103.06
2022-12-23T06:30:00.256Z,100093.44
2022-12-23T06:33:02.535Z,100108.56
2022-12-23T06:36:05.721Z,100102.25
2022-12-23T06:39:10.435Z,100108.88
2022-12-23T06:42:13.047Z,100099.78
2022-12-23T06:45:15.378Z,100096.91
2022-12-23T06:48:18.074Z,100112.69
2022-12-23T06:51:20.458Z,100102.47
2022-12-23T06:54:23.087Z,100111.91
2022-12-23T06:57:25.370Z,100116.56
2022-12-23T07:00:28.057Z,100116.94
2022-12-23T07:03:30.475Z,100120.41
2022-12-23T07:06:33.130Z,100134.56
2022-12-23T07:09:35.487Z,100138.75
2022-12-23T07:12:38.632Z,100157.47
2022-12-23T07:15:40.982Z,100161.03
2022-12-23T07:18:43.929Z,100151.91
2022-12-23T07:21:46.236Z,100158.94
2022-12-23T07:24:48.845Z,100162.94
2022-12-23T07:27:55.232Z,100155.00
2022-12-23T07:30:58.080Z,100164.22
2022-12-23T07:34:00.504Z,100132.09
2022-12-23T07:37:03.145Z,100128.13
2022-12-23T07:40:08.807Z,100115.44
2022-12-23T07:43:11.827Z,100122.78
2022-12-23T07:46:14.290Z,100124.41
2022-12-23T07:49:17.034Z,100137.03
2022-12-23T07:52:19.527Z,100124.84
2022-12-23T07:55:22.545Z,100139.28
2022-12-23T07:58:25.225Z,100130.12
2022-12-23T08:01:27.949Z,100131.87
2022-12-23T08:04:30.658Z,100124.72
2022-12-23T08:07:33.043Z,100132.41
2022-12-23T08:10:35.746Z,100127.97
2022-12-23T08:13:40.083Z,100115.69
2022-12-23T08:16:44.261Z,100113.44
2022-12-23T08:19:47.889Z,100118.53
2022-12-23T08:22:50.553Z,100095.56
2022-12-23T08:26:08.144Z,100118.50
2022-12-23T08:29:10.711Z,100112.75
2022-12-23T08:32:13.079Z,100120.06
2022-12-23T08:35:15.964Z,100127.47
2022-12-23T08:38:18.352Z,100120.28
2022-12-23T08:41:25.024Z,100124.13
2022-12-23T08:44:28.142Z,100108.44
2022-12-23T08:47:30.887Z,100119.97
2022-12-23T08:50:40.717Z,100117.22
2022-12-23T08:53:43.508Z,100104.94
2022-12-23T08:56:45.810Z,100092.03
2022-12-23T08:59:48.445Z,100064.47
2022-12-23T09:02:50.887Z,100058.19
2022-12-23T09:05:53.574Z,100069.69
2022-12-23T09:08:56.230Z,100069.09
2022-12-23T09:11:58.855Z,100084.97
2022-12-23T09:15:01.237Z,100088.41
2022-12-23T09:18:03.918Z,100081.31
2022-12-23T09:21:10.964Z,100089.50
2022-12-23T09:24:13.701Z,100095.09
2022-12-23T09:27:16.288Z,100098.31
2022-12-23T09:30:19.175Z,100104.69
2022-12-23T09:33:21.783Z,100084.06
2022-12-23T09:36:24.530Z,100093.78
2022-12-23T09:39:26.864Z,100083.72
2022-12-23T09:42:48.128Z,100087.16
2022-12-23T09:45:53.399Z,100082.25
2022-12-23T09:49:02.651Z,100071.69
2022-12-23T09:52:13.736Z,100065.31
2022-12-23T09:55:18.744Z,100074.06
2022-12-23T09:58:35.679Z,100083.66
2022-12-23T10:02:04.759Z,100082.81
2022-12-23T10:05:46.182Z,100074.56
2022-12-23T10:08:53.617Z,100057.13
2022-12-23T10:11:57.140Z,100043.69
2022-12-23T10:15:02.672Z,100025.72
2022-12-23T10:18:28.225Z,100036.28
2022-12-23T10:21:37.798Z,100039.81
2022-12-23T10:24:47.636Z,100032.47
2022-12-23T10:27:50.156Z,100009.13
2022-12-23T10:31:31.149Z,100038.09
2022-12-23T10:34:48.711Z,100028.84
2022-12-23T10:38:03.522Z,100019.25
2022-12-23T10:41:15.411Z,100010.50
2022-12-23T10:44:24.503Z,100002.50
2022-12-23T10:47:51.959Z,99995.34
2022-12-23T10:51:01.436Z,100000.34
2022-12-23T10:54:12.071Z,99999.75
2022-12-23T10:57:16.783Z,100002.81
2022-12-23T11:00:23.104Z,99992.09
2022-12-23T11:03:30.129Z,100005.78
2022-12-23T11:06:37.616Z,100006.59
2022-12-23T11:09:54.467Z,100005.34
2022-12-23T11:12:56.882Z,99996.59
2022-12-23T11:16:32.264Z,100002.59
2022-12-23T11:19:34.736Z,100000.13
2022-12-23T11:22:49.725Z,99994.78
2022-12-23T11:26:00.038Z,99994.44
2022-12-23T11:29:10.686Z,99980.94
2022-12-23T11:32:20.915Z,99985.66
2022-12-23T11:35:30.104Z,99983.63
2022-12-23T11:38:33.955Z,99990.22
2022-12-23T11:41:40.184Z,99995.50
2022-12-23T11:44:51.908Z,99997.84
2022-12-23T11:47:56.232Z,100000.41
2022-12-23T11:51:04.018Z,99993.00
2022-12-23T11:54:06.676Z,100001.06
2022-12-23T11:57:19.339Z,99989.56
2022-12-23T12:00:36.663Z,99993.72
2022-12-23T12:03:48.756Z,100005.84
2022-12-23T12:06:56.564Z,99992.13
2022-12-23T12:10:01.796Z,100012.00
2022-12-23T12:13:08.317Z,100008.97
2022-12-23T12:16:22.764Z,100016.41
2022-12-23T12:19:57.776Z,100012.59
2022-12-23T12:23:09.529Z,99993.87
2022-12-23T12:26:23.579Z,99999.38
2022-12-23T12:29:38.046Z,100010.44
2022-12-23T12:32:46.420Z,99998.28
2022-12-23T12:35:57.782Z,100002.69
2022-12-23T12:39:02.641Z,100001.34
2022-12-23T12:42:14.455Z,100001.69
2022-12-23T12:45:22.684Z,99999.78
2022-12-23T12:48:32.669Z,99994.56
2022-12-23T12:51:46.596Z,99989.03
2022-12-23T12:55:01.516Z,100000.34
2022-12-23T12:58:03.971Z,100002.28
2022-12-23T13:01:22.192Z,99989.34
2022-12-23T13:04:30.532Z,99995.41
2022-12-23T13:08:02.512Z,100010.81
2022-12-23T13:11:33.780Z,100009.69
2022-12-23T13:14:59.187Z,100014.09
2022-12-23T13:18:21.651Z,99994.59
2022-12-23T13:21:38.377Z,100011.94
2022-12-23T13:24:58.734Z,100021.03
2022-12-23T13:28:54.320Z,100018.59
2022-12-23T13:32:27.894Z,100018.06
2022-12-23T13:35:39.256Z,100013.66
2022-12-23T13:39:00.206Z,100003.72
2022-12-23T13:42:06.034Z,100015.00
2022-12-23T13:45:17.539Z,100012.78
2022-12-23T13:48:47.951Z,99999.31
2022-12-23T13:52:11.515Z,100015.56
2022-12-23T13:55:29.166Z,100022.19
2022-12-23T13:58:32.792Z,100002.06
2022-12-23T14:01:47.399Z,100017.78
2022-12-23T14:04:59.157Z,99992.16
2022-12-23T14:08:06.438Z,100002.66
2022-12-23T14:11:09.064Z,100005.69
2022-12-23T14:14:57.904Z,100023.31
2022-12-23T14:18:48.929Z,100014.50
2022-12-23T14:22:13.006Z,100017.78
2022-12-23T14:25:45.935Z,100026.63
2022-12-23T14:29:09.398Z,100020.31
2022-12-23T14:32:44.479Z,100018.06
2022-12-23T14:35:46.748Z,100032.38
2022-12-23T14:39:11.136Z,100025.75
2022-12-23T14:42:32.536Z,100032.97
2022-12-23T14:45:42.376Z,100036.00
2022-12-23T14:48:44.663Z,100037.66
2022-12-23T14:51:50.867Z,100031.88
2022-12-23T14:55:21.121Z,100025.25
2022-12-23T14:58:20.090Z,100017.84
2022-12-23T15:01:34.357Z,100021.69
2022-12-23T15:04:46.504Z,100029.41
2022-12-23T15:07:49.406Z,100029.94
2022-12-23T15:10:52.166Z,100033.25
2022-12-23T15:13:57.213Z,100039.88
2022-12-23T15:17:00.333Z,100055.31
2022-12-23T15:20:23.404Z,100055.03
2022-12-23T15:23:26.428Z,100073.50
2022-12-23T15:26:32.853Z,100075.72
2022-12-23T15:29:35.652Z,100065.19
2022-12-23T15:32:41.244Z,100051.44
2022-12-23T15:35:44.358Z,100034.31
2022-12-23T15:38:46.755Z,100059.72
2022-12-23T15:41:49.391Z,100068.81
2022-12-23T15:44:51.882Z,100053.66
2022-12-23T15:47:55.179Z,100054.50
2022-12-23T15:51:11.811Z,100050.34
2022-12-23T15:54:23.035Z,100052.53
2022-12-23T15:57:28.331Z,100052.53
2022-12-23T16:00:41.076Z,100043.47
2022-12-23T16:03:51.390Z,100047.03
2022-12-23T16:06:55.496Z,100032.16
2022-12-23T16:10:02.102Z,100041.53
2022-12-23T16:13:04.442Z,100043.19
2022-12-23T16:16:29.362Z,100044.81
2022-12-23T16:19:43.820Z,100042.34
2022-12-23T16:22:50.368Z,100047.59
2022-12-23T16:25:53.579Z,100048.69
2022-12-23T16:29:00.808Z,100038.50
2022-12-23T16:32:03.259Z,100037.13
2022-12-23T16:35:12.937Z,100032.44
2022-12-23T16:38:33.297Z,100048.69
2022-12-23T16:41:36.304Z,100034.38
2022-12-23T16:44:39.562Z,100031.62
2022-12-23T16:47:42.889Z,100029.97
2022-12-23T16:50:46.233Z,100041.81
2022-12-23T16:53:57.518Z,100029.41
2022-12-23T16:57:00.107Z,100030.22
2022-12-23T17:00:02.974Z,100042.09
2022-12-23T17:03:07.103Z,100029.16
2022-12-23T17:06:14.094Z,100028.88
2022-12-23T17:09:16.465Z,100034.38
2022-12-23T17:12:19.427Z,100026.66
2022-12-23T17:15:24.233Z,100024.47
2022-12-23T17:18:26.805Z,100023.06
2022-12-23T17:21:33.491Z,100033.56
2022-12-23T17:24:36.317Z,100036.03
2022-12-23T17:27:40.314Z,100023.34
2022-12-23T17:30:42.964Z,100021.13
2022-12-23T17:33:45.349Z,100033.28
2022-12-23T17:36:50.712Z,100029.41
2022-12-23T17:39:53.388Z,100012.88
2022-12-23T17:42:56.007Z,100015.62
2022-12-23T17:45:58.433Z,100010.94
2022-12-23T17:49:01.069Z,100019.47
2022-12-23T17:52:06.497Z,100016.44
2022-12-23T17:55:24.379Z,100023.34
2022-12-23T17:58:26.839Z,100022.53
2022-12-23T18:01:31.952Z,100031.31
2022-12-23T18:04:34.687Z,100025.00
2022-12-23T18:07:36.986Z,100029.16
2022-12-23T18:10:40.767Z,100006.53
2022-12-23T18:13:43.180Z,100009.81
2022-12-23T18:16:46.414Z,100013.41
2022-12-23T18:19:49.021Z,100021.66
2022-12-23T18:22:53.725Z,100013.69
2022-12-23T18:25:57.257Z,100008.19
2022-12-23T18:28:59.926Z,100009.00
2022-12-23T18:32:02.240Z,100003.50
2022-12-23T18:35:22.277Z,100017.84
2022-12-23T18:38:24.652Z,100013.97
2022-12-23T18:41:28.051Z,100017.84
2022-12-23T18:44:30.386Z,100023.06
2022-12-23T18:47:33.075Z,100026.38
2022-12-23T18:50:38.625Z,100026.94
2022-12-23T18:53:41.687Z,100027.22
2022-12-23T18:56:44.410Z,100030.50
2022-12-23T18:59:47.058Z,100040.72
2022-12-23T19:02:50.373Z,100031.62
2022-12-23T19:05:55.060Z,100018.91
2022-12-23T19:08:57.467Z,100035.44
2022-12-23T19:12:00.408Z,100036.00
2022-12-23T19:15:02.795Z,100047.03
2022-12-23T19:18:05.557Z,100041.00
2022-12-23T19:21:09.306Z,100045.09
2022-12-23T19:24:12.048Z,100049.50
2022-12-23T19:27:14.319Z,100050.03
2022-12-23T19:30:18.176Z,100055.56
2022-12-23T19:33:20.464Z,100057.47
2022-12-23T19:36:23.490Z,100056.94
2022-12-23T19:39:27.011Z,100048.38
2022-12-23T19:42:30.558Z,100067.97
2022-12-23T19:45:32.898Z,100061.34
2022-12-23T19:48:36.454Z,100052.25
2022-12-23T19:51:38.760Z,100056.06
2022-12-23T19:54:41.410Z,100062.44
2022-12-23T19:57:43.899Z,100072.06
2022-12-23T20:00:46.541Z,100066.31
2022-12-23T20:03:50.029Z,100065.75
2022-12-23T20:06:52.455Z,100077.59
2022-12-23T20:09:55.108Z,100079.22
2022-12-23T20:12:57.421Z,100081.75
2022-12-23T20:16:00.407Z,100085.03
2022-12-23T20:19:03.616Z,100081.47
2022-12-23T20:22:06.190Z,100076.22
2022-12-23T20:25:08.783Z,100063.81
2022-12-23T20:28:11.426Z,100055.84
2022-12-23T20:31:22.587Z,100063.87
2022-12-23T20:34:25.288Z,100068.56
2022-12-23T20:37:27.654Z,100045.09
2022-12-23T20:40:30.473Z,100043.69
2022-12-23T20:43:34.718Z,100035.19
2022-12-23T20:46:37.401Z,100042.06
2022-12-23T20:49:39.815Z,100037.66
2022-12-23T20:52:42.496Z,100020.31
2022-12-23T20:55:44.871Z,100017.84
2022-12-23T20:58:56.050Z,100027.75
2022-12-23T21:01:59.358Z,100026.94
2022-12-23T21:05:02.228Z,100024.16
2022-12-23T21:08:04.829Z,100025.00
2022-12-23T21:11:07.708Z,100037.41
2022-12-23T21:14:10.609Z,100026.09
2022-12-23T21:17:13.179Z,100009.00
2022-12-23T21:20:15.560Z,100016.16
2022-12-23T21:23:18.179Z,100032.69
2022-12-23T21:26:23.174Z,100029.41
2022-12-23T21:29:26.124Z,100017.78
2022-12-23T21:32:28.469Z,100020.56
2022-12-23T21:35:31.044Z,100024.13
2022-12-23T21:38:39.225Z,100014.50
2022-12-23T21:41:42.433Z,99999.59
2022-12-23T21:44:44.727Z,100001.81
2022-12-23T21:47:47.346Z,99995.75
2022-12-23T21:50:49.631Z,99986.37
2022-12-23T21:53:54.415Z,100002.06
2022-12-23T21:56:56.765Z,99991.59
2022-12-23T21:59:59.393Z,99984.16
2022-12-23T22:03:01.761Z,99989.41
2022-12-23T22:06:12.260Z,99984.13
2022-12-23T22:09:19.135Z,99968.44
2022-12-23T22:12:21.723Z,99950.28
2022-12-23T22:15:24.121Z,99943.13
2022-12-23T22:18:26.907Z,99947.53
2022-12-23T22:21:31.965Z,99934.03
2022-12-23T22:24:34.640Z,99917.22
2022-12-23T22:27:37.053Z,99897.69
2022-12-23T22:30:39.687Z,99907.88
2022-12-23T22:33:42.231Z,99912.00
2022-12-23T22:36:45.269Z,99909.25
2022-12-23T22:39:47.769Z,99915.31
2022-12-23T22:42:50.385Z,99910.09
2022-12-23T22:46:00.488Z,99915.31
2022-12-23T22:49:03.394Z,99887.47
2022-12-23T22:52:05.700Z,99890.81
2022-12-23T22:55:08.707Z,99895.47
2022-12-23T22:58:11.083Z,99901.28
2022-12-23T23:01:33.126Z,99892.72
2022-12-23T23:04:35.574Z,99891.06
2022-12-23T23:07:39.081Z,99893.53
2022-12-23T23:10:41.892Z,99896.03
2022-12-23T23:13:44.473Z,99883.06
2022-12-23T23:16:47.431Z,99888.84
2022-12-23T23:19:51.210Z,99890.47
2022-12-23T23:22:53.636Z,99890.50
2022-12-23T23:25:56.279Z,99905.38
2022-12-23T23:28:58.590Z,99891.03
2022-12-23T23:32:01.880Z,99911.16
2022-12-23T23:35:10.565Z,99929.62
2022-12-23T23:38:13.501Z,99907.31
2022-12-23T23:41:20.668Z,99904.25
2022-12-23T23:44:25.426Z,99903.19
2022-12-23T23:47:27.779Z,99884.19
2022-12-23T23:50:30.588Z,99887.47
2022-12-23T23:53:33.008Z,99893.53
2022-12-23T23:56:38.552Z,99886.94
2022-12-23T23:59:41.597Z,99879.22
